Terminal Aerodrome Forecast
Issued by NWS Birmingham, AL

Home | Current Version | Previous Version | Text Only | Print | Product List | Glossary On
Versions: 1 2 3 4 5 6 7 8 9 10 11 12 13 14 15 16
000
FTUS44 KBMX 032328
TAFBHM
TAF
KBHM 032328Z 0400/0424 06005KT P6SM SCT050 SCT150
     FM041100 00000KT 4SM HZ BR SKC
     FM041400 VRB03KT P6SM SCT050 SCT250=

USA.gov is the U.S. government's official web portal to all federal, state and local government web resources and services.